Time;durP1;ratioP1;P1;durP2;ratioP2;P2;SDS_P1;SDS_P2;PMS_P1;PMS_P2;Temp;Humidity;BMP_temperature;BMP_pressure;BME280_temperature;BME280_humidity;BME280_pressure;Samples;Min_cycle;Max_cycle;Signal;HPM_P1;HPM_P2
2022/04/17 00:02:05;;;;;;;11.67;4.80;;;3.40;97.30;;;;;;4979591;28;20222;-79
2022/04/17 00:04:31;;;;;;;7.63;4.30;;;3.30;97.30;;;;;;4978905;28;20229;-78
2022/04/17 00:06:56;;;;;;;5.57;3.80;;;3.30;97.30;;;;;;4978290;28;20429;-77
2022/04/17 00:09:22;;;;;;;7.20;4.23;;;3.30;97.30;;;;;;4980338;28;20255;-79
2022/04/17 00:11:47;;;;;;;7.30;4.10;;;3.20;97.30;;;;;;4979035;28;20230;-79
2022/04/17 00:14:13;;;;;;;8.50;3.63;;;3.10;97.30;;;;;;4979283;28;20587;-79
2022/04/17 00:16:42;;;;;;;5.47;4.23;;;3.10;97.30;;;;;;4978919;28;20193;-79
2022/04/17 00:19:08;;;;;;;6.87;4.60;;;3.00;97.30;;;;;;4979007;28;20209;-78
2022/04/17 00:21:34;;;;;;;8.00;4.37;;;3.00;97.30;;;;;;4979160;28;20423;-79
2022/04/17 00:24:00;;;;;;;7.13;3.87;;;3.00;97.30;;;;;;4979325;28;20452;-78
2022/04/17 00:26:25;;;;;;;9.63;4.67;;;2.90;97.30;;;;;;4979172;28;20589;-78
2022/04/17 00:28:51;;;;;;;4.43;3.70;;;2.90;97.30;;;;;;4979385;28;20182;-78
2022/04/17 00:31:17;;;;;;;5.00;4.03;;;2.90;97.30;;;;;;4978517;28;20187;-80
2022/04/17 00:33:43;;;;;;;10.07;5.03;;;2.80;97.30;;;;;;4978393;28;20264;-78
2022/04/17 00:36:08;;;;;;;5.80;4.70;;;2.80;97.30;;;;;;4979487;28;20194;-76
2022/04/17 00:38:34;;;;;;;6.27;3.90;;;2.80;97.30;;;;;;4978648;28;20418;-79
2022/04/17 00:41:00;;;;;;;5.40;3.90;;;2.80;97.30;;;;;;4979465;28;20206;-78
2022/04/17 00:43:30;;;;;;;7.90;4.83;;;2.80;97.30;;;;;;4978591;28;20179;-77
2022/04/17 00:45:56;;;;;;;10.90;6.63;;;2.70;97.30;;;;;;4978708;28;20190;-79
2022/04/17 00:48:22;;;;;;;9.00;6.13;;;2.60;97.30;;;;;;4978682;28;20429;-79
2022/04/17 00:50:50;;;;;;;11.40;6.10;;;2.60;97.30;;;;;;4978857;28;21065;-79
2022/04/17 00:53:17;;;;;;;13.20;5.80;;;2.40;97.30;;;;;;4977812;28;21002;-79
2022/04/17 00:55:44;;;;;;;11.50;5.67;;;2.40;97.30;;;;;;4979166;28;20572;-78
2022/04/17 00:58:10;;;;;;;15.33;7.57;;;2.40;97.30;;;;;;4979898;28;20414;-78
2022/04/17 01:00:36;;;;;;;15.30;6.50;;;2.40;97.30;;;;;;4978580;28;20509;-79
2022/04/17 01:03:02;;;;;;;11.20;6.60;;;2.40;97.30;;;;;;4978535;28;20486;-78
2022/04/17 01:05:27;;;;;;;16.50;7.97;;;2.40;97.30;;;;;;4994332;28;20456;-80
2022/04/17 01:07:53;;;;;;;14.87;6.93;;;2.30;97.30;;;;;;4978614;28;20254;-79
2022/04/17 01:10:19;;;;;;;11.97;7.13;;;2.30;97.30;;;;;;4978762;28;20540;-78
2022/04/17 01:12:46;;;;;;;10.40;6.20;;;2.30;97.30;;;;;;4977821;28;20532;-79
2022/04/17 01:15:12;;;;;;;12.17;6.13;;;2.30;97.30;;;;;;4979385;28;20198;-78
2022/04/17 01:17:37;;;;;;;11.57;5.57;;;2.20;97.30;;;;;;4979089;28;20419;-79
2022/04/17 01:20:04;;;;;;;9.53;5.33;;;2.20;97.30;;;;;;4977918;28;20201;-79
2022/04/17 01:22:29;;;;;;;12.30;5.77;;;2.20;97.30;;;;;;4977933;28;20186;-78
2022/04/17 01:27:41;;;;;;;9.80;5.40;;;2.10;97.30;;;;;;4979281;28;20190;-79
2022/04/17 01:30:07;;;;;;;8.70;5.33;;;2.10;97.30;;;;;;4978992;28;20426;-79
2022/04/17 01:32:33;;;;;;;8.33;4.90;;;2.00;97.30;;;;;;4978537;28;20472;-79
2022/04/17 01:34:59;;;;;;;7.50;3.80;;;2.00;97.30;;;;;;4977976;28;20525;-79
2022/04/17 01:37:25;;;;;;;11.80;5.40;;;2.00;97.30;;;;;;4977962;28;20524;-79
2022/04/17 01:39:50;;;;;;;8.90;4.43;;;1.90;97.30;;;;;;4978140;28;20183;-77
2022/04/17 01:42:16;;;;;;;9.10;4.60;;;1.80;97.30;;;;;;4978512;28;20183;-80
2022/04/17 01:44:42;;;;;;;9.00;4.90;;;1.80;97.30;;;;;;4978721;28;20198;-78
2022/04/17 01:47:08;;;;;;;10.57;5.43;;;1.80;97.30;;;;;;4978278;28;20182;-79
2022/04/17 01:49:34;;;;;;;8.50;4.90;;;1.70;97.30;;;;;;4978492;28;20422;-79
2022/04/17 01:52:03;;;;;;;6.37;4.10;;;1.70;97.30;;;;;;4977968;28;20418;-79
2022/04/17 01:54:29;;;;;;;5.83;4.03;;;1.70;97.30;;;;;;4978269;28;20450;-79
2022/04/17 01:56:55;;;;;;;8.90;4.40;;;1.70;97.30;;;;;;4978885;28;20418;-79
2022/04/17 01:59:22;;;;;;;8.70;5.33;;;1.70;97.30;;;;;;4978803;28;20246;-78
2022/04/17 02:01:49;;;;;;;7.67;4.87;;;1.70;97.30;;;;;;5011110;28;20494;-78
2022/04/17 02:04:15;;;;;;;8.60;4.97;;;1.60;97.30;;;;;;4979581;28;20445;-79
2022/04/17 02:06:42;;;;;;;6.20;4.40;;;1.60;97.30;;;;;;4980622;28;20467;-78
2022/04/17 02:09:11;;;;;;;8.30;5.00;;;1.60;97.30;;;;;;4978759;28;20521;-79
2022/04/17 02:11:38;;;;;;;6.90;4.23;;;1.50;97.30;;;;;;4978807;28;20846;-77
2022/04/17 02:14:05;;;;;;;5.17;3.90;;;1.50;97.30;;;;;;5011670;28;20473;-78
2022/04/17 02:16:30;;;;;;;10.83;4.37;;;1.50;97.30;;;;;;4978480;28;21030;-79
2022/04/17 02:18:57;;;;;;;14.73;4.73;;;1.50;97.30;;;;;;4978672;28;20445;-79
2022/04/17 02:21:22;;;;;;;7.77;4.00;;;1.40;97.30;;;;;;4978429;28;20186;-79
2022/04/17 02:23:48;;;;;;;9.27;4.10;;;1.40;97.30;;;;;;4978318;28;20903;-79
2022/04/17 02:26:17;;;;;;;8.40;4.70;;;1.30;97.30;;;;;;4980757;28;20272;-79
2022/04/17 02:28:44;;;;;;;8.43;4.37;;;1.30;97.30;;;;;;4979368;28;20182;-79
2022/04/17 02:31:10;;;;;;;5.30;3.90;;;1.30;97.30;;;;;;4980613;28;20458;-77
2022/04/17 02:33:37;;;;;;;9.70;4.13;;;1.30;97.30;;;;;;4983270;28;20487;-79
2022/04/17 02:36:04;;;;;;;8.50;4.17;;;1.20;97.30;;;;;;4984014;28;20424;-79
2022/04/17 02:38:30;;;;;;;6.27;4.20;;;1.20;97.30;;;;;;4983101;28;20414;-79
2022/04/17 02:40:56;;;;;;;7.50;4.27;;;1.20;97.30;;;;;;4982634;28;20420;-78
2022/04/17 02:43:22;;;;;;;9.60;4.13;;;1.20;97.30;;;;;;4983624;28;20414;-79
2022/04/17 02:45:49;;;;;;;6.13;4.13;;;1.10;97.30;;;;;;4981846;28;20264;-79
2022/04/17 02:48:15;;;;;;;4.83;4.13;;;1.10;97.30;;;;;;4984921;28;20617;-79
2022/04/17 02:50:41;;;;;;;8.13;4.90;;;1.10;97.30;;;;;;4981612;28;20510;-78
2022/04/17 02:53:07;;;;;;;5.60;4.23;;;1.10;97.30;;;;;;4981849;28;20576;-79
2022/04/17 02:55:33;;;;;;;5.70;3.47;;;1.10;97.30;;;;;;4981267;28;20214;-79
2022/04/17 02:57:59;;;;;;;8.57;3.87;;;1.10;97.30;;;;;;4981787;28;20470;-79
2022/04/17 03:00:26;;;;;;;5.77;4.20;;;1.00;97.30;;;;;;4983651;28;20785;-79
2022/04/17 03:05:36;;;;;;;6.97;3.70;;;0.90;97.30;;;;;;4984108;28;20533;-79
2022/04/17 03:08:20;;;;;;;6.60;4.30;;;0.90;97.30;;;;;;4982530;28;20456;-79
2022/04/17 03:10:48;;;;;;;5.93;3.93;;;0.90;97.30;;;;;;4982280;28;20194;-79
2022/04/17 03:13:15;;;;;;;7.23;4.40;;;0.80;97.30;;;;;;4982614;28;20507;-78
2022/04/17 03:15:40;;;;;;;7.93;4.53;;;0.80;97.30;;;;;;4982644;28;20446;-78
2022/04/17 03:18:08;;;;;;;10.77;4.53;;;0.80;97.30;;;;;;4982473;28;20437;-80
2022/04/17 03:20:33;;;;;;;6.23;3.93;;;0.80;97.30;;;;;;4983038;28;20655;-79
2022/04/17 03:22:59;;;;;;;12.50;4.00;;;0.80;97.30;;;;;;4982845;28;20476;-78
2022/04/17 03:25:24;;;;;;;6.77;4.17;;;0.70;97.30;;;;;;4982095;28;20743;-79
2022/04/17 03:27:50;;;;;;;7.30;3.57;;;0.70;97.30;;;;;;4982181;28;20192;-78
2022/04/17 03:30:17;;;;;;;5.63;3.63;;;0.70;97.30;;;;;;4983899;28;20184;-80
2022/04/17 03:32:47;;;;;;;7.57;3.53;;;0.70;97.30;;;;;;4982302;28;20672;-79
2022/04/17 03:35:14;;;;;;;8.57;3.70;;;0.70;97.30;;;;;;4981671;28;20443;-78
2022/04/17 03:37:43;;;;;;;5.60;4.00;;;0.70;97.30;;;;;;4981572;28;20916;-79
2022/04/17 03:40:10;;;;;;;9.30;4.60;;;0.70;97.30;;;;;;4982093;28;20421;-79
2022/04/17 03:42:36;;;;;;;7.07;4.00;;;0.70;97.30;;;;;;4982702;28;20417;-79
2022/04/17 03:45:06;;;;;;;7.10;3.60;;;0.70;97.30;;;;;;4981436;28;20437;-79
2022/04/17 03:47:33;;;;;;;4.23;3.80;;;0.70;97.30;;;;;;4982418;28;20429;-78
2022/04/17 03:49:59;;;;;;;6.33;3.60;;;0.70;97.30;;;;;;4982320;28;20764;-79
2022/04/17 03:52:25;;;;;;;5.83;3.90;;;0.60;97.30;;;;;;4982869;28;20994;-79
2022/04/17 03:54:51;;;;;;;7.63;3.83;;;0.60;97.30;;;;;;4982072;28;20433;-78
2022/04/17 03:57:16;;;;;;;8.10;3.67;;;0.60;97.30;;;;;;4982547;28;20417;-79
2022/04/17 03:59:42;;;;;;;4.60;3.70;;;0.60;97.30;;;;;;4982141;28;20175;-78
2022/04/17 04:02:07;;;;;;;5.37;3.10;;;0.60;97.30;;;;;;4981999;28;20258;-78
2022/04/17 04:04:34;;;;;;;4.63;3.00;;;0.50;97.30;;;;;;4983362;28;20203;-78
2022/04/17 04:06:59;;;;;;;4.33;3.23;;;0.50;97.30;;;;;;4983153;28;20257;-78
2022/04/17 04:09:25;;;;;;;7.83;3.43;;;0.50;97.30;;;;;;4981428;28;20505;-79
2022/04/17 04:11:51;;;;;;;7.57;3.47;;;0.40;97.30;;;;;;4981465;28;20163;-77
2022/04/17 04:14:16;;;;;;;8.20;3.70;;;0.40;97.30;;;;;;4981432;28;20660;-77
2022/04/17 04:16:42;;;;;;;6.07;3.80;;;0.30;97.30;;;;;;4982420;28;20183;-78
2022/04/17 04:19:07;;;;;;;4.93;3.43;;;0.30;97.30;;;;;;4981585;28;20178;-79
2022/04/17 04:21:47;;;;;;;5.10;3.47;;;0.30;97.30;;;;;;4981059;28;20190;-78
2022/04/17 04:24:15;;;;;;;6.70;3.47;;;0.30;97.30;;;;;;4981724;28;20202;-78
2022/04/17 04:26:42;;;;;;;4.23;3.20;;;0.30;97.30;;;;;;4980909;28;20425;-78
2022/04/17 04:29:08;;;;;;;6.80;4.43;;;0.30;97.30;;;;;;4982830;28;20425;-79
2022/04/17 04:31:34;;;;;;;6.50;4.00;;;0.30;97.30;;;;;;4980640;28;20886;-78
2022/04/17 04:33:59;;;;;;;9.37;4.10;;;0.30;97.30;;;;;;4981262;28;20221;-79
2022/04/17 04:36:25;;;;;;;7.90;3.60;;;0.30;97.30;;;;;;4980719;28;20213;-79
2022/04/17 04:38:50;;;;;;;6.53;3.90;;;0.30;97.30;;;;;;4980826;28;20185;-78
2022/04/17 04:41:16;;;;;;;6.20;3.50;;;0.30;97.30;;;;;;4980951;28;20180;-78
2022/04/17 04:43:41;;;;;;;5.17;3.70;;;0.30;97.30;;;;;;4981163;28;20451;-78
2022/04/17 04:46:07;;;;;;;6.17;3.60;;;0.30;97.30;;;;;;4980334;28;20633;-79
2022/04/17 04:51:26;;;;;;;8.50;3.90;;;0.30;97.30;;;;;;4981868;28;20259;-79
2022/04/17 04:53:53;;;;;;;5.07;2.90;;;0.30;97.30;;;;;;4980027;28;20476;-78
2022/04/17 04:56:19;;;;;;;4.97;3.63;;;0.30;97.30;;;;;;4981559;28;20411;-79
2022/04/17 04:58:45;;;;;;;3.40;2.80;;;0.40;97.30;;;;;;4980047;28;20924;-79
2022/04/17 05:01:12;;;;;;;6.47;3.50;;;0.40;97.30;;;;;;4980139;28;20695;-78
2022/04/17 05:03:38;;;;;;;9.33;3.80;;;0.40;97.30;;;;;;4979735;28;20417;-79
2022/04/17 05:06:04;;;;;;;5.40;3.70;;;0.50;97.30;;;;;;4980204;28;20422;-79
2022/04/17 05:08:30;;;;;;;9.30;3.30;;;0.50;97.30;;;;;;4978995;28;20417;-78
2022/04/17 05:10:56;;;;;;;6.13;3.07;;;0.50;97.30;;;;;;4978946;28;20428;-78
2022/04/17 05:13:22;;;;;;;6.83;3.60;;;0.60;97.30;;;;;;4979287;28;20457;-78
2022/04/17 05:15:48;;;;;;;4.20;3.30;;;0.60;97.30;;;;;;4980779;28;20493;-77
2022/04/17 05:18:13;;;;;;;7.43;3.97;;;0.70;97.30;;;;;;5011856;28;20249;-79
2022/04/17 05:20:39;;;;;;;6.20;3.47;;;0.70;97.30;;;;;;4979027;28;20489;-78
2022/04/17 05:23:22;;;;;;;5.90;3.53;;;0.70;97.30;;;;;;4979076;28;20601;-79
2022/04/17 05:25:51;;;;;;;5.10;3.60;;;0.80;97.30;;;;;;4978672;28;20541;-79
2022/04/17 05:28:17;;;;;;;5.30;3.20;;;0.90;97.30;;;;;;4978586;28;20922;-79
2022/04/17 05:30:44;;;;;;;4.80;3.10;;;0.90;97.30;;;;;;4978833;28;20456;-77
2022/04/17 05:33:10;;;;;;;4.80;3.03;;;1.00;97.30;;;;;;4978874;28;20472;-78
2022/04/17 05:35:36;;;;;;;6.03;3.33;;;1.10;97.30;;;;;;5011031;28;20438;-79
2022/04/17 05:38:03;;;;;;;6.03;2.97;;;1.10;97.30;;;;;;4980090;28;20418;-79
2022/04/17 05:40:33;;;;;;;4.80;3.40;;;1.30;97.30;;;;;;5011864;28;20461;-78
2022/04/17 05:42:59;;;;;;;4.70;3.30;;;1.30;97.30;;;;;;4981013;28;20426;-78
2022/04/17 05:45:26;;;;;;;4.30;3.37;;;1.50;97.30;;;;;;4981403;28;20449;-79
2022/04/17 05:47:51;;;;;;;5.70;3.63;;;1.50;97.30;;;;;;4979953;28;20431;-78
2022/04/17 05:50:17;;;;;;;4.23;3.30;;;1.70;97.30;;;;;;4979820;28;20481;-79
2022/04/17 05:52:43;;;;;;;6.60;3.97;;;1.80;97.30;;;;;;4979980;28;20672;-79
2022/04/17 05:55:09;;;;;;;11.40;4.00;;;1.90;97.30;;;;;;4979989;28;20457;-77
2022/04/17 05:57:35;;;;;;;5.77;3.27;;;2.00;97.30;;;;;;4979834;28;20648;-78
2022/04/17 06:00:02;;;;;;;6.17;3.60;;;2.10;97.30;;;;;;4981089;28;20421;-77
2022/04/17 06:02:28;;;;;;;6.27;3.37;;;2.20;97.30;;;;;;4979911;28;20712;-78
2022/04/17 06:04:54;;;;;;;7.10;3.50;;;2.30;97.30;;;;;;4978678;28;20449;-79
2022/04/17 06:07:27;;;;;;;5.97;3.40;;;2.50;97.30;;;;;;4981311;28;20206;-77
2022/04/17 06:09:52;;;;;;;7.07;3.73;;;2.60;97.30;;;;;;4981229;28;20202;-77
2022/04/17 06:12:18;;;;;;;7.03;3.80;;;2.70;97.30;;;;;;4981131;28;20438;-78
2022/04/17 06:14:43;;;;;;;7.57;3.97;;;2.80;97.30;;;;;;4980937;28;20213;-79
2022/04/17 06:17:10;;;;;;;9.13;3.57;;;2.90;97.30;;;;;;4982729;28;20224;-78
2022/04/17 06:19:36;;;;;;;7.10;3.90;;;3.00;97.30;;;;;;4982188;28;20187;-79
2022/04/17 06:22:02;;;;;;;8.93;3.70;;;3.10;97.30;;;;;;4983021;28;20440;-78
2022/04/17 06:24:27;;;;;;;6.30;3.63;;;3.20;97.30;;;;;;4983771;28;21038;-79
2022/04/17 06:26:53;;;;;;;6.43;3.57;;;3.40;97.30;;;;;;4983196;28;20930;-78
2022/04/17 06:29:19;;;;;;;6.30;4.00;;;3.50;97.30;;;;;;4982701;28;20241;-78
2022/04/17 06:31:45;;;;;;;8.30;4.00;;;3.60;97.30;;;;;;4982219;28;20642;-79
2022/04/17 06:34:11;;;;;;;5.97;3.20;;;3.80;97.10;;;;;;4983196;28;20210;-77
2022/04/17 06:36:37;;;;;;;8.40;3.70;;;3.90;95.80;;;;;;5015649;28;20533;-79
2022/04/17 06:39:03;;;;;;;7.23;3.70;;;4.00;94.80;;;;;;4983996;28;20489;-79
2022/04/17 06:41:28;;;;;;;8.67;3.87;;;4.20;94.60;;;;;;4982810;28;20456;-79
2022/04/17 06:43:54;;;;;;;8.77;3.43;;;4.30;94.40;;;;;;4983593;28;20210;-78
2022/04/17 06:46:19;;;;;;;6.03;3.80;;;4.50;94.60;;;;;;4985322;28;20389;-79
2022/04/17 06:48:45;;;;;;;3.90;2.83;;;4.60;94.10;;;;;;4982812;28;20184;-79
2022/04/17 06:51:10;;;;;;;9.30;3.80;;;4.80;93.40;;;;;;4983255;28;20209;-77
2022/04/17 06:53:36;;;;;;;6.90;3.57;;;4.90;93.40;;;;;;4983050;28;20209;-79
2022/04/17 06:56:02;;;;;;;7.30;3.60;;;5.10;92.70;;;;;;4983117;28;20525;-78
2022/04/17 06:58:27;;;;;;;8.17;4.10;;;5.20;92.20;;;;;;4982961;28;20206;-79
2022/04/17 07:00:53;;;;;;;5.00;3.20;;;5.40;91.80;;;;;;4982084;28;20566;-79
2022/04/17 07:03:18;;;;;;;5.60;3.40;;;5.60;91.60;;;;;;4981686;28;20230;-79
2022/04/17 07:05:44;;;;;;;4.50;3.10;;;5.70;90.90;;;;;;4981487;28;20273;-78
2022/04/17 07:08:10;;;;;;;9.37;3.63;;;5.90;90.60;;;;;;4980992;28;20179;-79
2022/04/17 07:10:38;;;;;;;7.03;3.30;;;6.00;89.80;;;;;;4982713;28;20768;-79
2022/04/17 07:13:05;;;;;;;4.20;3.17;;;6.10;88.00;;;;;;4982650;28;20500;-78
2022/04/17 07:15:31;;;;;;;5.10;3.50;;;6.30;88.60;;;;;;4980770;28;20497;-78
2022/04/17 07:17:57;;;;;;;4.13;3.50;;;6.40;88.00;;;;;;4980006;28;20430;-79
2022/04/17 07:20:24;;;;;;;4.87;3.20;;;6.50;87.60;;;;;;4981703;28;20175;-79
2022/04/17 07:22:50;;;;;;;6.27;3.53;;;6.60;87.10;;;;;;4980346;28;20198;-79
2022/04/17 07:25:16;;;;;;;7.93;3.37;;;6.70;86.70;;;;;;4980881;28;20442;-80
2022/04/17 07:27:44;;;;;;;6.30;3.33;;;6.80;86.60;;;;;;4980383;28;20426;-79
2022/04/17 07:30:12;;;;;;;5.60;3.60;;;6.90;86.40;;;;;;4980565;28;20469;-78
2022/04/17 07:32:39;;;;;;;7.93;3.43;;;7.10;86.90;;;;;;4979681;28;20995;-79
2022/04/17 07:35:05;;;;;;;5.10;3.53;;;7.20;85.70;;;;;;4978781;28;20452;-80
2022/04/17 07:37:34;;;;;;;3.60;2.50;;;7.30;85.10;;;;;;4979176;28;20449;-79
2022/04/17 07:40:00;;;;;;;3.33;2.67;;;7.50;84.70;;;;;;4979354;28;20418;-78
2022/04/17 07:42:25;;;;;;;3.90;2.40;;;7.60;84.30;;;;;;4979601;28;20429;-79
2022/04/17 07:44:51;;;;;;;4.73;2.90;;;7.70;82.50;;;;;;4978928;28;20230;-79
2022/04/17 07:47:17;;;;;;;3.93;2.77;;;7.70;83.20;;;;;;4978755;28;20178;-79
2022/04/17 07:49:43;;;;;;;5.17;2.97;;;7.80;82.50;;;;;;4980252;28;20173;-79
2022/04/17 07:52:09;;;;;;;4.27;2.63;;;7.90;82.40;;;;;;5011504;28;20185;-79
2022/04/17 07:54:35;;;;;;;4.60;3.07;;;8.00;82.40;;;;;;4978824;28;20804;-80
2022/04/17 07:57:00;;;;;;;4.23;3.07;;;8.20;81.80;;;;;;4979127;28;20270;-79
2022/04/17 07:59:26;;;;;;;6.50;2.80;;;8.30;81.20;;;;;;4978815;28;20522;-80
2022/04/17 08:02:01;;;;;;;8.00;2.87;;;8.40;80.40;;;;;;4977871;28;20305;-78
2022/04/17 08:04:27;;;;;;;4.67;2.30;;;8.50;80.70;;;;;;4977713;28;20210;-80
2022/04/17 08:06:53;;;;;;;5.47;2.97;;;8.60;80.60;;;;;;4977978;28;20467;-79
2022/04/17 08:09:19;;;;;;;4.40;2.57;;;8.70;79.70;;;;;;4978050;28;20433;-80
2022/04/17 08:11:51;;;;;;;3.90;2.50;;;8.80;79.80;;;;;;4978203;28;20425;-80
2022/04/17 08:14:17;;;;;;;3.17;2.53;;;8.90;80.20;;;;;;4977389;28;20221;-80
2022/04/17 08:16:43;;;;;;;5.23;2.30;;;9.00;79.20;;;;;;4977858;28;20425;-80
2022/04/17 08:19:08;;;;;;;3.97;2.37;;;9.10;78.90;;;;;;4976914;28;20409;-79
2022/04/17 08:21:34;;;;;;;3.80;2.70;;;9.20;78.40;;;;;;4976445;28;20531;-80
2022/04/17 08:24:01;;;;;;;6.87;3.23;;;9.20;78.40;;;;;;4976157;28;20209;-79
2022/04/17 08:26:26;;;;;;;6.00;2.70;;;9.20;78.40;;;;;;4976807;28;20484;-80
2022/04/17 08:28:52;;;;;;;4.60;2.70;;;9.30;79.40;;;;;;4976456;28;20446;-79
2022/04/17 08:31:17;;;;;;;4.87;2.27;;;9.40;77.60;;;;;;4976424;28;20182;-80
2022/04/17 08:33:43;;;;;;;4.17;2.57;;;9.40;77.50;;;;;;4976442;28;20348;-80
2022/04/17 08:36:08;;;;;;;4.33;2.47;;;9.60;77.60;;;;;;4975858;28;20206;-80
2022/04/17 08:38:34;;;;;;;11.37;2.87;;;9.60;77.70;;;;;;4976034;28;20229;-80
2022/04/17 08:41:05;;;;;;;5.23;2.57;;;9.60;77.40;;;;;;4976290;28;20861;-80
2022/04/17 08:43:31;;;;;;;3.27;2.07;;;9.60;77.60;;;;;;4975536;28;20508;-79
2022/04/17 08:45:57;;;;;;;4.73;2.57;;;9.70;78.90;;;;;;4977233;28;20410;-80
2022/04/17 08:48:23;;;;;;;3.10;2.20;;;9.80;77.90;;;;;;4975811;28;20457;-80
2022/04/17 08:50:52;;;;;;;5.40;2.27;;;10.00;78.20;;;;;;4977293;28;20178;-80
2022/04/17 08:53:18;;;;;;;3.07;2.20;;;10.10;78.00;;;;;;4976972;28;20489;-81
2022/04/17 08:55:44;;;;;;;5.37;2.50;;;10.20;77.60;;;;;;4982684;28;20507;-80
2022/04/17 08:58:11;;;;;;;2.57;2.00;;;10.30;76.90;;;;;;4995237;28;20417;-80
2022/04/17 09:00:37;;;;;;;2.30;1.97;;;10.40;77.40;;;;;;4987608;28;20676;-80
2022/04/17 09:03:06;;;;;;;5.50;1.97;;;10.60;76.40;;;;;;5003116;28;20621;-81
2022/04/17 09:05:33;;;;;;;3.60;1.83;;;10.70;77.70;;;;;;4962332;28;20198;-80
2022/04/17 09:08:12;;;;;;;3.00;2.00;;;10.80;76.90;;;;;;4975667;28;20453;-80
2022/04/17 09:10:38;;;;;;;3.10;2.73;;;10.90;76.40;;;;;;5009737;28;20418;-82
2022/04/17 09:13:04;;;;;;;4.20;2.30;;;10.90;76.30;;;;;;4976475;28;20461;-83
2022/04/17 09:15:32;;;;;;;4.77;2.43;;;10.90;77.20;;;;;;4975774;28;20214;-83
2022/04/17 09:17:59;;;;;;;3.60;3.20;;;11.00;77.60;;;;;;4976143;28;20403;-83
2022/04/17 09:20:27;;;;;;;3.53;2.50;;;11.00;78.10;;;;;;4976792;28;20439;-82
2022/04/17 09:23:01;;;;;;;4.77;2.83;;;11.10;77.50;;;;;;5008584;28;20477;-81
2022/04/17 09:25:43;;;;;;;4.73;2.83;;;11.10;77.90;;;;;;5007448;28;20828;-83
2022/04/17 09:28:09;;;;;;;8.00;4.33;;;11.10;78.60;;;;;;5008225;28;20422;-83
2022/04/17 09:30:39;;;;;;;3.90;2.40;;;11.10;78.40;;;;;;4972575;28;20476;-82
2022/04/17 09:33:09;;;;;;;5.27;3.17;;;11.10;78.90;;;;;;4975412;28;20207;-83
2022/04/17 09:35:35;;;;;;;4.90;2.60;;;11.10;79.20;;;;;;4975143;28;20529;-83
2022/04/17 09:38:05;;;;;;;6.10;2.90;;;11.00;79.20;;;;;;4974526;28;20424;-83
2022/04/17 09:40:31;;;;;;;4.90;3.17;;;11.20;79.50;;;;;;4974437;28;20441;-83
2022/04/17 09:43:18;;;;;;;7.90;3.47;;;11.30;79.20;;;;;;4975102;28;20433;-83
2022/04/17 09:45:59;;;;;;;4.47;2.70;;;11.50;78.00;;;;;;4975345;28;20476;-81
2022/04/17 09:48:29;;;;;;;4.70;2.90;;;11.50;77.60;;;;;;4975115;28;20429;-84
2022/04/17 09:50:55;;;;;;;7.27;3.50;;;11.60;77.50;;;;;;4974947;28;20457;-83
2022/04/17 09:53:30;;;;;;;5.03;3.30;;;11.70;78.20;;;;;;4975018;28;20462;-82
2022/04/17 09:56:06;;;;;;;6.93;3.40;;;11.90;77.80;;;;;;4976553;28;20293;-84
2022/04/17 09:58:36;;;;;;;5.57;3.10;;;12.10;79.00;;;;;;4974783;28;20418;-83
2022/04/17 10:01:03;;;;;;;6.00;3.20;;;12.20;77.70;;;;;;4974697;28;20457;-83
2022/04/17 10:03:29;;;;;;;6.20;2.97;;;12.30;77.50;;;;;;4974751;28;20488;-83
2022/04/17 10:05:55;;;;;;;5.03;3.23;;;12.40;76.70;;;;;;4975256;28;20417;-83
2022/04/17 10:08:25;;;;;;;6.13;3.63;;;12.60;77.30;;;;;;4974708;28;20679;-83
2022/04/17 10:10:51;;;;;;;6.17;2.73;;;12.70;76.50;;;;;;4975738;28;20442;-80
2022/04/17 10:13:19;;;;;;;4.50;2.83;;;12.90;76.40;;;;;;4975162;28;21074;-80
2022/04/17 10:15:47;;;;;;;8.10;3.13;;;12.90;77.40;;;;;;4975344;28;20947;-81
2022/04/17 10:18:14;;;;;;;6.43;3.37;;;13.00;77.30;;;;;;4974718;28;20418;-81
2022/04/17 10:20:41;;;;;;;5.67;3.13;;;13.20;76.50;;;;;;4974903;28;20414;-81
2022/04/17 10:23:11;;;;;;;7.90;2.90;;;13.20;76.40;;;;;;4974760;28;20489;-80
2022/04/17 10:25:39;;;;;;;4.87;2.97;;;13.20;76.00;;;;;;5007551;28;20434;-80
2022/04/17 10:28:06;;;;;;;4.53;2.80;;;13.30;76.90;;;;;;4974058;28;20515;-79
2022/04/17 10:31:11;;;;;;;6.07;3.10;;;13.30;75.80;;;;;;4973650;28;20948;-81
2022/04/17 10:33:48;;;;;;;6.03;3.37;;;13.40;75.60;;;;;;4973853;28;21034;-81
2022/04/17 10:36:32;;;;;;;4.10;2.53;;;13.50;75.50;;;;;;5007508;28;20565;-81
2022/04/17 10:39:23;;;;;;;4.90;2.80;;;13.50;74.60;;;;;;4974563;28;20409;-80
2022/04/17 10:41:49;;;;;;;4.03;2.90;;;13.40;73.70;;;;;;4972143;28;20418;-80
2022/04/17 10:44:16;;;;;;;4.80;2.90;;;13.40;77.00;;;;;;4973865;28;20438;-81
2022/04/17 10:46:49;;;;;;;4.83;3.20;;;13.70;76.90;;;;;;4973044;28;20178;-81
2022/04/17 10:49:20;;;;;;;4.47;2.47;;;14.00;75.50;;;;;;4972797;28;20421;-81
2022/04/17 10:51:51;;;;;;;4.93;2.80;;;14.10;74.70;;;;;;4973530;28;20461;-80
2022/04/17 10:54:17;;;;;;;4.40;2.97;;;14.20;74.20;;;;;;4975573;28;20469;-81
2022/04/17 10:56:54;;;;;;;4.17;3.13;;;14.30;73.90;;;;;;4975827;28;20962;-80
2022/04/17 10:59:34;;;;;;;5.07;3.47;;;14.50;74.60;;;;;;5009014;28;20205;-81
2022/04/17 11:02:02;;;;;;;4.80;3.23;;;14.50;73.90;;;;;;4977116;28;20496;-81
2022/04/17 11:04:37;;;;;;;3.70;3.23;;;14.50;73.90;;;;;;5009527;28;20452;-81
2022/04/17 11:07:09;;;;;;;7.00;4.70;;;14.60;73.60;;;;;;4977851;28;20696;-81
2022/04/17 11:09:41;;;;;;;7.43;2.90;;;14.60;73.70;;;;;;5010036;28;20433;-79
2022/04/17 11:12:10;;;;;;;7.33;2.60;;;14.70;72.70;;;;;;4976249;28;20457;-81
2022/04/17 11:14:39;;;;;;;2.87;2.47;;;14.80;73.40;;;;;;5008170;28;21030;-81
2022/04/17 11:17:09;;;;;;;7.10;2.73;;;14.80;72.50;;;;;;4975249;28;20418;-81
2022/04/17 11:19:36;;;;;;;3.90;2.90;;;14.90;72.20;;;;;;4975136;28;20508;-81
2022/04/17 11:22:04;;;;;;;3.90;2.97;;;14.90;73.20;;;;;;4974009;28;20877;-81
2022/04/17 11:24:54;;;;;;;4.60;2.70;;;15.00;73.00;;;;;;4973916;28;20453;-81
2022/04/17 11:27:47;;;;;;;4.90;2.90;;;15.20;75.10;;;;;;5006825;28;20453;-81
2022/04/17 11:30:16;;;;;;;3.93;2.50;;;15.20;72.70;;;;;;4973713;28;20421;-81
2022/04/17 11:32:42;;;;;;;3.63;2.50;;;15.20;72.30;;;;;;5006579;28;20458;-81
2022/04/17 11:35:09;;;;;;;4.27;2.40;;;15.30;72.40;;;;;;5007746;28;21039;-81
2022/04/17 11:37:35;;;;;;;4.97;2.33;;;15.20;71.80;;;;;;4974393;28;20668;-81
2022/04/17 11:40:15;;;;;;;4.47;2.60;;;15.40;73.20;;;;;;4973966;28;20422;-81
2022/04/17 11:42:48;;;;;;;4.63;2.60;;;15.70;71.60;;;;;;4974880;28;20426;-81
2022/04/17 11:45:20;;;;;;;4.17;3.10;;;15.70;71.60;;;;;;4974083;28;20442;-81
2022/04/17 11:47:47;;;;;;;3.27;2.50;;;15.80;71.30;;;;;;4975229;28;20413;-82
2022/04/17 11:50:27;;;;;;;3.87;2.67;;;15.70;70.20;;;;;;5008668;28;20421;-81
2022/04/17 11:52:57;;;;;;;3.43;2.37;;;15.50;71.70;;;;;;4978167;28;20545;-80
2022/04/17 11:55:34;;;;;;;4.77;2.93;;;15.60;73.10;;;;;;4978903;28;20854;-80
2022/04/17 11:58:00;;;;;;;3.57;2.83;;;15.70;71.90;;;;;;4978858;28;20836;-79
2022/04/17 12:00:27;;;;;;;5.43;2.70;;;16.00;70.90;;;;;;4978781;28;20947;-80
2022/04/17 12:03:00;;;;;;;5.20;2.93;;;16.10;71.30;;;;;;4978708;28;20480;-79
2022/04/17 12:05:27;;;;;;;4.03;2.57;;;16.40;73.90;;;;;;4976709;28;20462;-80
2022/04/17 12:07:57;;;;;;;3.17;2.10;;;16.50;69.60;;;;;;4978071;28;20853;-81
2022/04/17 12:10:23;;;;;;;3.90;2.57;;;16.70;72.60;;;;;;4978596;28;20422;-80
2022/04/17 12:12:49;;;;;;;4.63;3.17;;;16.80;70.10;;;;;;4978695;28;20493;-80
2022/04/17 12:15:16;;;;;;;3.67;2.40;;;16.90;70.40;;;;;;4978785;28;20556;-81
2022/04/17 12:17:42;;;;;;;3.13;2.60;;;17.10;72.10;;;;;;4978170;28;20177;-81
2022/04/17 12:20:14;;;;;;;4.90;2.80;;;17.30;70.00;;;;;;4978680;28;20418;-80
2022/04/17 12:22:42;;;;;;;6.63;2.60;;;17.40;69.20;;;;;;4978055;28;20417;-80
2022/04/17 12:25:20;;;;;;;5.10;2.60;;;17.40;69.40;;;;;;4976971;28;20441;-80
2022/04/17 12:27:47;;;;;;;5.13;2.53;;;17.50;70.20;;;;;;4977569;28;20430;-80
2022/04/17 12:30:13;;;;;;;5.30;2.47;;;17.60;70.50;;;;;;4978323;28;20421;-80
2022/04/17 12:32:46;;;;;;;3.60;2.80;;;17.80;69.10;;;;;;4977314;28;20422;-80
2022/04/17 12:35:15;;;;;;;2.33;2.07;;;17.90;69.20;;;;;;4977664;28;20449;-80
2022/04/17 12:37:40;;;;;;;3.93;2.30;;;17.90;68.70;;;;;;4977552;28;20796;-80
2022/04/17 12:40:11;;;;;;;4.57;2.70;;;17.90;68.50;;;;;;4977210;28;20414;-80
2022/04/17 12:42:37;;;;;;;6.53;1.80;;;18.00;68.10;;;;;;4977599;28;20187;-80
2022/04/17 12:45:05;;;;;;;3.27;1.73;;;18.00;66.60;;;;;;4976237;28;20893;-81
2022/04/17 12:47:30;;;;;;;3.00;2.00;;;17.80;66.30;;;;;;4977473;28;20492;-81
2022/04/17 12:50:07;;;;;;;4.07;2.13;;;17.90;66.80;;;;;;4977418;28;20463;-81
2022/04/17 12:52:33;;;;;;;3.40;2.33;;;18.00;67.60;;;;;;4978226;28;20240;-80
2022/04/17 12:55:12;;;;;;;4.27;2.27;;;18.00;67.60;;;;;;4976191;28;20952;-81
2022/04/17 12:57:38;;;;;;;3.27;2.20;;;18.20;66.40;;;;;;4977339;28;20417;-81
2022/04/17 13:00:15;;;;;;;4.70;1.90;;;18.30;66.90;;;;;;4975356;28;20488;-80
2022/04/17 13:02:41;;;;;;;3.20;2.20;;;18.50;66.50;;;;;;4975134;28;20481;-81
2022/04/17 13:05:07;;;;;;;7.10;2.57;;;18.60;66.80;;;;;;4974608;28;20446;-80